createdAt,value
2019-05-03T00:32:40.013Z,7.00
2019-05-03T00:42:07.970Z,6.90
2019-05-03T00:44:36.546Z,6.90
2019-05-03T00:52:32.052Z,6.90
2019-05-03T00:55:26.026Z,6.90
2019-05-03T00:58:56.422Z,6.80
2019-05-03T01:01:49.082Z,6.90
2019-05-03T01:04:23.181Z,7.00
2019-05-03T01:07:09.062Z,7.10
2019-05-03T01:09:42.428Z,7.10
2019-05-03T01:12:16.214Z,7.10
2019-05-03T01:15:13.592Z,7.00
2019-05-03T02:03:07.607Z,6.10
2019-05-03T02:28:32.814Z,5.80
2019-05-03T02:57:15.080Z,5.60
2019-05-03T03:00:08.234Z,5.80
2019-05-03T03:02:40.959Z,5.90
2019-05-03T03:05:12.084Z,6.00
2019-05-03T03:08:00.695Z,6.00
2019-05-03T03:10:38.882Z,6.10
2019-05-03T03:13:20.564Z,6.20
2019-05-03T03:16:01.359Z,6.20
2019-05-03T03:18:45.621Z,6.20
2019-05-03T03:21:22.193Z,6.20
2019-05-03T03:24:18.672Z,6.30
2019-05-03T03:26:52.038Z,6.30
2019-05-03T03:29:35.726Z,6.30
2019-05-03T03:32:38.268Z,6.40
2019-05-03T03:35:19.418Z,6.40
2019-05-03T03:37:59.646Z,6.40
2019-05-03T03:40:58.918Z,6.50
2019-05-03T03:43:37.613Z,6.50
2019-05-03T03:46:19.176Z,6.50
2019-05-03T03:48:51.301Z,6.50
2019-05-03T03:51:36.617Z,6.50
2019-05-03T03:54:26.035Z,6.50
2019-05-03T03:57:11.578Z,6.50
2019-05-03T04:00:16.218Z,6.50
2019-05-03T04:02:59.951Z,6.50
2019-05-03T04:05:30.059Z,6.50
2019-05-03T04:08:05.405Z,6.50
2019-05-03T04:10:59.808Z,6.50
2019-05-03T04:13:46.790Z,6.50
2019-05-03T04:16:45.683Z,6.50
2019-05-03T04:19:47.675Z,6.50
2019-05-03T04:22:12.982Z,6.50
2019-05-03T04:24:55.291Z,6.50
2019-05-03T04:27:26.822Z,6.50
2019-05-03T04:29:56.907Z,6.50
2019-05-03T04:32:36.307Z,6.50
2019-05-03T04:35:17.211Z,6.50
2019-05-03T04:38:05.145Z,6.50
2019-05-03T04:40:35.673Z,6.50
2019-05-03T04:43:17.753Z,6.50
2019-05-03T04:45:38.840Z,6.50
2019-05-03T04:48:29.455Z,6.60
2019-05-03T04:51:05.923Z,6.60
2019-05-03T04:57:39.543Z,6.80
2019-05-03T05:00:05.418Z,6.90
2019-05-03T05:05:05.919Z,6.90
2019-05-03T05:10:52.596Z,7.00
2019-05-03T05:15:37.631Z,7.00
2019-05-03T05:17:16.268Z,7.10
2019-05-03T05:24:30.763Z,7.10
2019-05-03T05:31:19.148Z,7.00
2019-05-03T05:38:09.043Z,7.10
2019-05-03T05:42:29.216Z,7.10
2019-05-03T05:45:07.110Z,7.10
2019-05-03T05:51:35.339Z,7.10
2019-05-03T05:54:07.914Z,7.10
2019-05-03T05:57:29.434Z,7.10
2019-05-03T06:00:49.547Z,7.20
2019-05-03T06:03:28.858Z,7.30
2019-05-03T06:06:16.583Z,7.40
2019-05-03T06:12:17.579Z,7.50
2019-05-03T06:15:08.590Z,7.50
2019-05-03T06:17:50.682Z,7.60
2019-05-03T06:21:18.284Z,7.60
2019-05-03T06:23:58.105Z,7.70
2019-05-03T06:26:56.254Z,7.80
2019-05-03T06:32:44.850Z,7.80
2019-05-03T06:35:24.344Z,7.90
2019-05-03T06:37:59.759Z,7.90
2019-05-03T06:41:11.832Z,8.00
2019-05-03T06:43:57.691Z,8.10
2019-05-03T06:46:45.955Z,8.10
2019-05-03T06:49:21.843Z,8.10
2019-05-03T06:52:29.171Z,8.10
2019-05-03T06:55:10.630Z,8.20
2019-05-03T07:01:04.653Z,8.20
2019-05-03T07:04:12.291Z,8.40
2019-05-03T07:07:15.479Z,8.50
2019-05-03T07:09:49.492Z,8.50
2019-05-03T07:12:20.828Z,8.50
2019-05-03T07:15:17.617Z,8.60
2019-05-03T07:17:55.588Z,8.60
2019-05-03T07:20:31.702Z,8.60
2019-05-03T07:23:05.770Z,8.60
2019-05-03T07:25:55.102Z,8.50
2019-05-03T07:28:24.817Z,8.60
2019-05-03T07:31:29.531Z,8.70
2019-05-03T07:33:46.674Z,8.70
2019-05-03T07:36:31.921Z,8.60
2019-05-03T07:39:01.297Z,8.70
2019-05-03T07:41:36.243Z,8.80
2019-05-03T07:44:10.582Z,8.80
2019-05-03T07:46:47.326Z,8.70
2019-05-03T07:49:24.813Z,8.80
2019-05-03T07:51:59.328Z,8.90
2019-05-03T07:54:31.701Z,8.90
2019-05-03T07:57:32.113Z,9.00
2019-05-03T08:00:10.485Z,9.10
2019-05-03T08:02:55.112Z,9.00
2019-05-03T08:05:27.059Z,9.00
2019-05-03T08:08:04.705Z,9.00
2019-05-03T08:10:38.257Z,8.90
2019-05-03T08:13:15.094Z,9.10
2019-05-03T08:15:47.239Z,9.10
2019-05-03T08:18:18.629Z,8.90
2019-05-03T08:20:56.131Z,9.10
2019-05-03T08:23:30.592Z,9.10
2019-05-03T08:26:05.767Z,9.10
2019-05-03T08:28:35.492Z,9.00
2019-05-03T08:31:32.091Z,9.00
2019-05-03T08:34:30.052Z,9.20
2019-05-03T08:37:27.729Z,9.10
2019-05-03T08:39:51.575Z,9.20
2019-05-03T08:42:38.265Z,9.30
2019-05-03T08:45:17.615Z,9.50
2019-05-03T08:47:47.333Z,9.50
2019-05-03T08:50:21.893Z,9.70
2019-05-03T08:52:55.877Z,9.70
2019-05-03T08:55:31.098Z,9.60
2019-05-03T08:58:00.551Z,9.70
2019-05-03T09:00:38.395Z,9.80
2019-05-03T09:03:20.226Z,9.80
2019-05-03T09:05:42.147Z,9.90
2019-05-03T09:08:12.909Z,10.20
2019-05-03T09:11:02.614Z,10.40
2019-05-03T09:13:59.197Z,10.60
2019-05-03T09:16:36.271Z,10.70
2019-05-03T09:19:14.661Z,10.80
2019-05-03T09:21:49.537Z,10.90
2019-05-03T09:24:24.601Z,10.70
2019-05-03T09:26:55.405Z,10.80
2019-05-03T09:29:26.294Z,10.90
2019-05-03T09:32:05.079Z,10.90
2019-05-03T09:34:36.488Z,11.10
2019-05-03T09:37:15.498Z,11.10
2019-05-03T09:39:48.844Z,11.00
2019-05-03T09:42:25.522Z,10.90
2019-05-03T09:44:55.627Z,10.70
2019-05-03T09:47:27.242Z,10.30
2019-05-03T09:49:56.565Z,10.20
2019-05-03T09:52:35.374Z,10.20
2019-05-03T09:55:09.403Z,10.10
2019-05-03T09:57:46.279Z,10.00
2019-05-03T10:00:16.241Z,10.20
2019-05-03T10:02:55.973Z,10.20
2019-05-03T10:05:25.713Z,10.20
2019-05-03T10:07:55.597Z,10.10
2019-05-03T10:10:27.808Z,10.00
2019-05-03T10:12:59.574Z,10.10
2019-05-03T10:15:42.389Z,10.00
2019-05-03T10:18:16.427Z,10.00
2019-05-03T10:20:48.706Z,10.10
2019-05-03T10:23:36.983Z,10.20
2019-05-03T10:26:15.136Z,10.50
2019-05-03T10:28:46.139Z,10.60
2019-05-03T10:31:22.668Z,10.80
2019-05-03T10:34:10.828Z,10.80
2019-05-03T10:37:15.185Z,10.80
2019-05-03T10:39:55.960Z,10.90
2019-05-03T10:42:41.770Z,11.00
2019-05-03T10:45:16.147Z,11.10
2019-05-03T10:47:45.835Z,11.20
2019-05-03T10:50:26.744Z,11.10
2019-05-03T10:53:17.537Z,11.40
2019-05-03T10:56:07.293Z,11.50
2019-05-03T10:58:37.243Z,11.50
2019-05-03T11:01:14.045Z,11.40
2019-05-03T11:03:45.079Z,11.20
2019-05-03T11:06:17.946Z,11.20
2019-05-03T11:08:54.685Z,11.20
2019-05-03T11:11:35.203Z,11.20
2019-05-03T11:14:06.413Z,11.50
2019-05-03T11:16:35.437Z,11.70
2019-05-03T11:19:05.428Z,11.60
2019-05-03T11:21:39.179Z,11.60
2019-05-03T11:24:09.813Z,11.70
2019-05-03T11:26:47.977Z,12.00
2019-05-03T11:29:35.665Z,12.10
2019-05-03T11:32:25.437Z,12.60
2019-05-03T11:35:14.959Z,12.80
2019-05-03T11:38:00.778Z,12.90
2019-05-03T11:40:49.042Z,12.90
2019-05-03T11:43:20.547Z,13.00
2019-05-03T11:45:58.281Z,12.90
2019-05-03T11:48:35.358Z,12.80
2019-05-03T11:51:21.420Z,12.70
2019-05-03T11:53:50.612Z,12.70
2019-05-03T11:56:24.971Z,12.80
2019-05-03T11:58:55.003Z,12.70
2019-05-03T12:01:51.754Z,12.60
2019-05-03T12:04:25.531Z,12.70
2019-05-03T12:07:05.811Z,12.90
2019-05-03T12:09:47.892Z,12.80
2019-05-03T12:12:39.159Z,13.00
2019-05-03T12:15:22.760Z,13.20
2019-05-03T12:17:58.552Z,13.30
2019-05-03T12:20:29.106Z,13.30
2019-05-03T12:23:02.377Z,13.10
2019-05-03T12:25:31.881Z,12.90
2019-05-03T12:29:15.381Z,13.00
2019-05-03T12:30:35.683Z,12.90
2019-05-03T12:33:06.393Z,13.10
2019-05-03T12:35:51.523Z,13.20
2019-05-03T12:38:42.421Z,13.10
2019-05-03T12:41:21.809Z,13.00
2019-05-03T12:43:55.021Z,12.90
2019-05-03T12:46:28.601Z,12.80
2019-05-03T12:48:59.904Z,12.90
2019-05-03T12:51:28.914Z,13.00
2019-05-03T12:54:04.845Z,13.40
2019-05-03T12:56:35.854Z,13.70
2019-05-03T12:59:15.919Z,13.90
2019-05-03T13:02:10.099Z,13.80
2019-05-03T13:04:39.589Z,13.50
2019-05-03T13:07:28.513Z,13.40
2019-05-03T13:09:57.087Z,13.50
2019-05-03T13:12:29.454Z,13.40
2019-05-03T13:15:00.152Z,13.30
2019-05-03T13:18:15.552Z,13.20
2019-05-03T13:20:36.041Z,13.10
2019-05-03T13:22:58.063Z,13.20
2019-05-03T13:25:28.397Z,13.20
2019-05-03T13:28:02.507Z,13.30
2019-05-03T13:30:34.420Z,13.40
2019-05-03T13:33:05.799Z,13.60
2019-05-03T13:35:45.460Z,13.60
2019-05-03T13:38:13.927Z,13.90
2019-05-03T13:40:50.537Z,14.20
2019-05-03T13:43:20.429Z,14.30
2019-05-03T13:45:49.669Z,14.10
2019-05-03T13:48:41.746Z,13.80
2019-05-03T13:51:05.524Z,13.90
2019-05-03T13:53:45.899Z,14.00
2019-05-03T13:56:20.827Z,14.00
2019-05-03T13:58:58.710Z,13.80
2019-05-03T14:01:29.152Z,13.40
2019-05-03T14:04:02.592Z,13.40
2019-05-03T14:06:33.688Z,13.50
2019-05-03T14:09:07.977Z,13.40
2019-05-03T14:11:41.805Z,13.30
2019-05-03T14:14:22.570Z,13.30
2019-05-03T14:16:54.765Z,13.70
2019-05-03T14:19:37.435Z,14.10
2019-05-03T14:22:10.358Z,14.40
2019-05-03T14:24:58.468Z,14.10
2019-05-03T14:27:46.213Z,14.10
2019-05-03T14:30:25.153Z,14.10
2019-05-03T14:33:05.995Z,14.20
2019-05-03T14:35:45.888Z,14.10
2019-05-03T14:38:10.534Z,14.10
2019-05-03T14:40:39.438Z,14.00
2019-05-03T14:43:08.229Z,13.90
2019-05-03T14:45:41.406Z,13.80
2019-05-03T14:48:20.848Z,13.60
2019-05-03T14:50:49.635Z,13.00
2019-05-03T14:53:25.285Z,12.70
2019-05-03T14:57:05.932Z,12.30
2019-05-03T14:59:16.471Z,11.80
2019-05-03T15:01:55.159Z,11.70
2019-05-03T15:04:36.398Z,11.60
2019-05-03T15:07:06.171Z,11.80
2019-05-03T15:09:37.968Z,12.10
2019-05-03T15:12:14.648Z,12.40
2019-05-03T15:14:45.157Z,12.40
2019-05-03T15:17:15.944Z,12.70
2019-05-03T15:19:46.687Z,12.70
2019-05-03T15:22:19.377Z,12.90
2019-05-03T15:24:54.432Z,13.00
2019-05-03T15:27:27.597Z,13.10
2019-05-03T15:29:58.303Z,13.40
2019-05-03T15:32:28.432Z,13.50
2019-05-03T15:34:59.377Z,13.30
2019-05-03T15:37:39.423Z,13.20
2019-05-03T15:40:15.573Z,13.10
2019-05-03T15:43:05.583Z,13.10
2019-05-03T15:46:06.525Z,13.20
2019-05-03T15:49:08.900Z,13.20
2019-05-03T15:51:44.710Z,13.20
2019-05-03T15:54:15.572Z,13.10
2019-05-03T15:56:44.902Z,13.10
2019-05-03T15:59:31.179Z,13.10
2019-05-03T16:01:55.176Z,13.10
2019-05-03T16:04:31.252Z,13.10
2019-05-03T16:07:04.827Z,13.20
2019-05-03T16:09:40.758Z,13.30
2019-05-03T16:12:14.416Z,13.40
2019-05-03T16:14:44.511Z,13.50
2019-05-03T16:17:28.334Z,13.40
2019-05-03T16:19:58.882Z,13.50
2019-05-03T16:22:51.722Z,13.30
2019-05-03T16:25:26.460Z,13.20
2019-05-03T16:28:12.844Z,13.20
2019-05-03T16:31:17.953Z,13.10
2019-05-03T16:33:52.545Z,13.10
2019-05-03T16:39:17.945Z,13.00
2019-05-03T16:41:51.139Z,13.00
2019-05-03T16:44:24.314Z,12.90
2019-05-03T16:47:04.888Z,12.90
2019-05-03T16:49:37.095Z,12.80
2019-05-03T16:52:12.210Z,12.80
2019-05-03T16:54:51.631Z,12.80
2019-05-03T16:57:28.134Z,12.80
2019-05-03T16:59:59.497Z,12.80
2019-05-03T17:02:30.417Z,12.70
2019-05-03T17:05:49.796Z,12.70
2019-05-03T17:09:05.904Z,12.70
2019-05-03T17:11:39.475Z,12.60
2019-05-03T17:14:34.399Z,12.40
2019-05-03T17:17:28.786Z,12.20
2019-05-03T17:20:16.754Z,11.50
2019-05-03T17:23:45.152Z,10.40
2019-05-03T17:34:37.493Z,9.60
2019-05-03T17:37:37.438Z,9.50
2019-05-03T17:41:17.385Z,9.30
2019-05-03T17:44:15.126Z,9.30
2019-05-03T17:50:55.068Z,9.20
2019-05-03T17:53:51.145Z,9.10
2019-05-03T17:56:59.803Z,9.10
2019-05-03T18:00:45.286Z,9.10
2019-05-03T18:03:27.363Z,9.00
2019-05-03T18:09:39.020Z,9.00
2019-05-03T18:12:16.459Z,9.00
2019-05-03T18:15:18.824Z,8.90
2019-05-03T18:17:59.520Z,8.90
2019-05-03T18:20:35.076Z,8.90
2019-05-03T18:23:28.127Z,8.90
2019-05-03T18:26:08.272Z,8.90
2019-05-03T18:28:39.929Z,8.90
2019-05-03T18:31:11.127Z,8.90
2019-05-03T18:33:44.769Z,8.90
2019-05-03T18:36:21.753Z,8.90
2019-05-03T18:39:05.497Z,8.80
2019-05-03T18:41:31.534Z,8.80
2019-05-03T18:44:34.714Z,8.80
2019-05-03T18:47:18.961Z,8.80
2019-05-03T18:49:47.957Z,8.80
2019-05-03T18:52:38.872Z,8.80
2019-05-03T18:55:22.390Z,8.80
2019-05-03T18:58:04.606Z,8.80
2019-05-03T19:00:35.112Z,8.80
2019-05-03T19:03:13.295Z,8.90
2019-05-03T19:05:54.673Z,8.90
2019-05-03T19:09:14.524Z,8.90
2019-05-03T19:12:00.027Z,8.90
2019-05-03T19:14:38.207Z,8.80
2019-05-03T19:17:35.550Z,8.60
2019-05-03T19:20:24.661Z,8.40
2019-05-03T19:23:00.688Z,8.40
2019-05-03T19:25:30.082Z,8.30
2019-05-03T19:27:58.817Z,8.30
2019-05-03T19:33:41.666Z,8.20
2019-05-03T19:38:54.826Z,8.20
2019-05-03T19:41:30.631Z,8.20
2019-05-03T19:43:59.493Z,8.10
2019-05-03T19:46:35.115Z,8.00
2019-05-03T19:49:06.240Z,8.00
2019-05-03T19:51:36.516Z,7.90
2019-05-03T19:54:26.089Z,7.90
2019-05-03T19:57:05.029Z,7.90
2019-05-03T19:59:56.318Z,7.90
2019-05-03T20:02:49.926Z,7.80
2019-05-03T20:05:38.185Z,7.70
2019-05-03T20:08:35.212Z,7.70
2019-05-03T20:11:22.751Z,7.70
2019-05-03T20:13:55.213Z,7.60
2019-05-03T20:16:34.696Z,7.60
2019-05-03T20:19:14.880Z,7.70
2019-05-03T20:21:35.780Z,7.60
2019-05-03T20:24:18.451Z,7.60
2019-05-03T20:27:00.365Z,7.50
2019-05-03T20:29:43.802Z,7.40
2019-05-03T20:32:25.154Z,7.40
2019-05-03T20:35:16.641Z,7.40
2019-05-03T20:37:41.830Z,7.30
2019-05-03T20:40:15.173Z,7.30
2019-05-03T20:43:15.082Z,7.30
2019-05-03T20:46:19.116Z,7.20
2019-05-03T20:49:00.295Z,7.20
2019-05-03T20:51:44.951Z,7.20
2019-05-03T20:54:19.211Z,7.10
2019-05-03T20:56:48.932Z,7.10
2019-05-03T20:59:20.738Z,7.10
2019-05-03T21:01:54.530Z,7.00
2019-05-03T21:04:24.677Z,7.00
2019-05-03T21:07:05.664Z,6.90
2019-05-03T21:09:34.567Z,6.80
2019-05-03T21:12:15.193Z,6.80
2019-05-03T21:14:55.698Z,6.80
2019-05-03T21:18:12.168Z,6.80
2019-05-03T21:21:02.137Z,6.70
2019-05-03T21:23:38.830Z,6.70
2019-05-03T21:26:19.191Z,6.60
2019-05-03T21:28:45.615Z,6.60
2019-05-03T21:31:16.580Z,6.60
2019-05-03T21:33:47.692Z,6.60
2019-05-03T21:36:36.663Z,6.50
2019-05-03T21:39:17.619Z,6.50
2019-05-03T21:41:48.353Z,6.50
2019-05-03T21:44:41.133Z,6.50
2019-05-03T21:47:36.896Z,6.50
2019-05-03T21:50:25.247Z,6.40
2019-05-03T21:53:05.762Z,6.40
2019-05-03T21:55:35.440Z,6.40
2019-05-03T21:58:04.778Z,6.40
2019-05-03T22:01:09.803Z,6.40
2019-05-03T22:03:46.332Z,6.40
2019-05-03T22:06:22.182Z,6.40
2019-05-03T22:08:58.784Z,6.40
2019-05-03T22:11:37.557Z,6.30
2019-05-03T22:14:24.490Z,6.40
2019-05-03T22:17:14.777Z,6.40
2019-05-03T22:19:45.552Z,6.40
2019-05-03T22:22:45.253Z,6.40
2019-05-03T22:25:29.930Z,6.40
2019-05-03T22:28:38.887Z,6.30
2019-05-03T22:31:06.868Z,6.30
2019-05-03T22:33:37.233Z,6.30
2019-05-03T22:36:19.423Z,6.30
2019-05-03T22:39:02.085Z,6.20
2019-05-03T22:41:40.302Z,6.20
2019-05-03T22:44:17.039Z,6.20
2019-05-03T22:46:46.026Z,6.20
2019-05-03T22:49:16.748Z,6.10
2019-05-03T22:51:50.044Z,6.10
2019-05-03T22:54:24.544Z,6.00
2019-05-03T22:56:57.890Z,6.00
2019-05-03T22:59:34.306Z,6.10
2019-05-03T23:02:03.340Z,6.10
2019-05-03T23:04:41.582Z,6.00
2019-05-03T23:08:11.477Z,6.00
2019-05-03T23:10:34.850Z,6.00
2019-05-03T23:13:05.728Z,6.10
2019-05-03T23:15:38.756Z,6.10
2019-05-03T23:18:11.149Z,6.00
2019-05-03T23:20:52.521Z,6.10
2019-05-03T23:23:45.449Z,6.00
2019-05-03T23:26:21.334Z,6.00
2019-05-03T23:28:57.431Z,6.00
2019-05-03T23:31:30.302Z,6.00
2019-05-03T23:34:13.373Z,6.00
2019-05-03T23:39:44.699Z,6.10
2019-05-03T23:42:24.594Z,6.00
2019-05-03T23:45:04.859Z,6.00
2019-05-03T23:47:46.395Z,6.00
2019-05-03T23:50:21.575Z,5.90
2019-05-03T23:52:55.289Z,6.00
2019-05-03T23:55:51.469Z,6.00
2019-05-03T23:58:26.088Z,6.00
